Legend — WDF9316 — position and weather

sailwx.info

Track history (hours):
 
Tides and Currents Weather Stations Pressure Air Temp Water Temp Dewpoint Dewpoint Depression Visibility Wind Speed Wind Dir Waves Ship Positions

Legend

Owner: Crowley Maritime, Seattle, WA. More information available from US FCC via Universal Licensing System and Coast Guard Vessel Documentation Center.

Last reported at 2014-Nov-24 07:21 UTC. Time now 2014-Nov-26 16:19 UTC.
Position N 29°35' W 093°46'.

Length 212 m; draft 7.7 m.

Type: Towing. MMSI: 366709000.

Date/timePositionNaut miles runAvg speedWind from/ knotsBaromVisibWave heightAir tempDewpointWater temp
2014-Nov-24 07:21N 29°35' W 093°46'1 0.3
2014-Nov-24 04:13N 29°36' W 093°45'  
2014-Nov-21 03:30N 25°03' W 080°11'3110.0
2014-Nov-21 00:27N 25°32' W 080°01'9 9.8
2014-Nov-20 23:33N 25°41' W 080°01'1010.1
2014-Nov-20 22:33N 25°51' W 080°01'1110.6
2014-Nov-20 21:33N 26°01' W 080°00'8 7.6
2014-Nov-20 20:33N 26°06' W 080°07'0 0.0
2014-Nov-20 19:32N 26°06' W 080°07'0 0.0
2014-Nov-20 18:32N 26°06' W 080°07'0 0.0
2014-Nov-20 17:23N 26°06' W 080°07'0 0.0
2014-Nov-20 16:26N 26°06' W 080°07'0 0.0
2014-Nov-20 15:26N 26°06' W 080°07'0 0.0
2014-Nov-20 14:26N 26°06' W 080°07'0 0.0
2014-Nov-20 13:29N 26°06' W 080°07'0 0.0
2014-Nov-20 12:29N 26°06' W 080°07'0 0.0
2014-Nov-20 11:29N 26°06' W 080°07'0 0.0
2014-Nov-20 10:32N 26°06' W 080°07'0 0.0
2014-Nov-20 09:32N 26°06' W 080°07'0 0.0
2014-Nov-20 08:32N 26°06' W 080°07'0 0.0
2014-Nov-20 07:29N 26°06' W 080°07'0 0.0
2014-Nov-20 06:32N 26°06' W 080°07'0 0.0
2014-Nov-20 05:32N 26°06' W 080°07'0 0.0
2014-Nov-20 04:32N 26°06' W 080°07'0 0.0
2014-Nov-20 03:23N 26°06' W 080°07'0 0.0
2014-Nov-20 02:23N 26°06' W 080°07'0 0.0
2014-Nov-20 01:26N 26°06' W 080°07'0 0.0
2014-Nov-20 00:26N 26°06' W 080°07'0 0.0
2014-Nov-19 23:29N 26°06' W 080°07'0 0.0
2014-Nov-19 22:29N 26°06' W 080°07'0 0.0
2014-Nov-19 21:29N 26°06' W 080°07'0 0.0
2014-Nov-19 20:32N 26°06' W 080°07'0 0.0
2014-Nov-19 19:32N 26°06' W 080°07'0 0.0
2014-Nov-19 18:32N 26°06' W 080°07'0 0.0
2014-Nov-19 17:32N 26°06' W 080°07'0 0.0
2014-Nov-19 16:32N 26°06' W 080°07'0 0.0
2014-Nov-19 15:32N 26°06' W 080°07'0 0.0
2014-Nov-19 14:32N 26°06' W 080°07'0 0.0
2014-Nov-19 13:20N 26°06' W 080°07'0 0.0
2014-Nov-19 12:20N 26°06' W 080°07'0 0.0
2014-Nov-19 11:23N 26°06' W 080°07'0 0.0
2014-Nov-19 10:26N 26°06' W 080°07'0 0.0
2014-Nov-19 09:26N 26°06' W 080°07'0 0.0
2014-Nov-19 08:26N 26°06' W 080°07'0 0.0
2014-Nov-19 07:29N 26°06' W 080°07'0 0.0
2014-Nov-19 06:34N 26°06' W 080°07'5 4.6
2014-Nov-19 05:33N 26°06' W 080°02'1212.2
2014-Nov-19 04:33N 25°54' W 079°60'  
Track history (hours):
 
Tides and Currents Weather Stations Pressure Air Temp Water Temp Dewpoint Dewpoint Depression Visibility Wind Speed Wind Dir Waves Ship Positions

Legend

Owner: Crowley Maritime, Seattle, WA. More information available from US FCC via Universal Licensing System and Coast Guard Vessel Documentation Center.

Last reported at 2014-Nov-24 07:21 UTC. Time now 2014-Nov-26 16:19 UTC.
Position N 29°35' W 093°46'.

Length 212 m; draft 7.7 m.

Type: Towing. MMSI: 366709000.

Date/timePositionNaut miles runAvg speedWind from/ knotsBaromVisibWave heightAir tempDewpointWater temp
2014-Nov-24 07:21N 29°35' W 093°46'1 0.3
2014-Nov-24 04:13N 29°36' W 093°45'  
2014-Nov-21 03:30N 25°03' W 080°11'3110.0
2014-Nov-21 00:27N 25°32' W 080°01'9 9.8
2014-Nov-20 23:33N 25°41' W 080°01'1010.1
2014-Nov-20 22:33N 25°51' W 080°01'1110.6
2014-Nov-20 21:33N 26°01' W 080°00'8 7.6
2014-Nov-20 20:33N 26°06' W 080°07'0 0.0
2014-Nov-20 19:32N 26°06' W 080°07'0 0.0
2014-Nov-20 18:32N 26°06' W 080°07'0 0.0
2014-Nov-20 17:23N 26°06' W 080°07'0 0.0
2014-Nov-20 16:26N 26°06' W 080°07'0 0.0
2014-Nov-20 15:26N 26°06' W 080°07'0 0.0
2014-Nov-20 14:26N 26°06' W 080°07'0 0.0
2014-Nov-20 13:29N 26°06' W 080°07'0 0.0
2014-Nov-20 12:29N 26°06' W 080°07'0 0.0
2014-Nov-20 11:29N 26°06' W 080°07'0 0.0
2014-Nov-20 10:32N 26°06' W 080°07'0 0.0
2014-Nov-20 09:32N 26°06' W 080°07'0 0.0
2014-Nov-20 08:32N 26°06' W 080°07'0 0.0
2014-Nov-20 07:29N 26°06' W 080°07'0 0.0
2014-Nov-20 06:32N 26°06' W 080°07'0 0.0
2014-Nov-20 05:32N 26°06' W 080°07'0 0.0
2014-Nov-20 04:32N 26°06' W 080°07'0 0.0
2014-Nov-20 03:23N 26°06' W 080°07'0 0.0
2014-Nov-20 02:23N 26°06' W 080°07'0 0.0
2014-Nov-20 01:26N 26°06' W 080°07'0 0.0
2014-Nov-20 00:26N 26°06' W 080°07'0 0.0
2014-Nov-19 23:29N 26°06' W 080°07'0 0.0
2014-Nov-19 22:29N 26°06' W 080°07'0 0.0
2014-Nov-19 21:29N 26°06' W 080°07'0 0.0
2014-Nov-19 20:32N 26°06' W 080°07'0 0.0
2014-Nov-19 19:32N 26°06' W 080°07'0 0.0
2014-Nov-19 18:32N 26°06' W 080°07'0 0.0
2014-Nov-19 17:32N 26°06' W 080°07'0 0.0
2014-Nov-19 16:32N 26°06' W 080°07'0 0.0
2014-Nov-19 15:32N 26°06' W 080°07'0 0.0
2014-Nov-19 14:32N 26°06' W 080°07'0 0.0
2014-Nov-19 13:20N 26°06' W 080°07'0 0.0
2014-Nov-19 12:20N 26°06' W 080°07'0 0.0
2014-Nov-19 11:23N 26°06' W 080°07'0 0.0
2014-Nov-19 10:26N 26°06' W 080°07'0 0.0
2014-Nov-19 09:26N 26°06' W 080°07'0 0.0
2014-Nov-19 08:26N 26°06' W 080°07'0 0.0
2014-Nov-19 07:29N 26°06' W 080°07'0 0.0
2014-Nov-19 06:34N 26°06' W 080°07'5 4.6
2014-Nov-19 05:33N 26°06' W 080°02'1212.2
2014-Nov-19 04:33N 25°54' W 079°60'  

Dump ship's entire track history